Time;durP1;ratioP1;P1;durP2;ratioP2;P2;SDS_P1;SDS_P2;PMS_P1;PMS_P2;Temp;Humidity;BMP_temperature;BMP_pressure;BME280_temperature;BME280_humidity;BME280_pressure;Samples;Min_cycle;Max_cycle;Signal;HPM_P1;HPM_P2
2023/06/16 00:02:24;;;;;;;10.97;1.10;;;;;;;24.48;55.15;99362.06;7309681;19;129190;-40
2023/06/16 00:04:50;;;;;;;32.57;2.43;;;;;;;24.61;54.96;99381.78;7311116;19;129142;-43
2023/06/16 00:07:19;;;;;;;110.10;7.30;;;;;;;24.51;55.32;99370.59;7307087;19;130579;-41
2023/06/16 00:09:46;;;;;;;40.55;2.72;;;;;;;24.49;55.37;99362.88;7311658;19;129440;-42
2023/06/16 00:12:12;;;;;;;;;;;;;;;24.65;55.08;99381.28;7310796;19;129691;-39
2023/06/16 00:14:37;;;;;;;29.88;2.28;;;;;;;24.62;54.97;99383.41;7307318;19;129186;-42
2023/06/16 00:17:03;;;;;;;53.93;3.40;;;;;;;24.62;55.45;99389.50;7308675;19;129519;-40
2023/06/16 00:19:29;;;;;;;108.47;7.30;;;;;;;24.60;55.25;99385.38;7308467;19;129478;-44
2023/06/16 00:21:59;;;;;;;25.97;1.93;;;;;;;24.58;54.83;99376.84;7310173;19;129811;-39
2023/06/16 00:24:25;;;;;;;28.40;2.03;;;;;;;24.60;55.41;99374.88;7309558;19;128806;-40
2023/06/16 00:26:50;;;;;;;42.00;2.97;;;;;;;24.62;55.35;99367.63;7307512;19;129222;-45
2023/06/16 00:29:16;;;;;;;32.67;2.40;;;;;;;24.60;55.21;99375.69;7310576;19;129475;-45
2023/06/16 00:31:41;;;;;;;25.40;1.93;;;;;;;24.48;55.40;99356.81;7309457;19;129644;-44
2023/06/16 00:34:06;;;;;;;33.03;2.37;;;;;;;24.61;55.18;99371.28;7309142;19;129672;-37
2023/06/16 00:36:32;;;;;;;46.63;3.10;;;;;;;24.62;54.75;99367.63;7306498;19;130101;-44
2023/06/16 00:38:57;;;;;;;43.87;2.77;;;;;;;24.59;55.13;99362.72;7310748;19;130765;-40
2023/06/16 00:41:22;;;;;;;22.17;1.77;;;;;;;24.61;55.21;99366.00;7309336;19;131519;-41
2023/06/16 00:43:48;;;;;;;30.23;2.28;;;;;;;24.60;54.96;99364.34;7309948;19;128920;-48
2023/06/16 00:46:28;;;;;;;103.93;6.60;;;;;;;24.63;55.11;99364.00;7309660;19;129773;-43
2023/06/16 00:48:58;;;;;;;49.13;3.33;;;;;;;24.59;55.29;99357.47;7316527;19;131259;-42
2023/06/16 00:51:26;;;;;;;85.85;5.78;;;;;;;24.60;54.91;99359.94;7315309;19;129491;-43
2023/06/16 00:53:52;;;;;;;33.60;2.45;;;;;;;24.61;55.29;99358.13;7317816;19;129701;-42
2023/06/16 00:56:21;;;;;;;;;;;;;;;24.67;55.38;99347.78;7317700;19;129870;-39
2023/06/16 00:58:48;;;;;;;44.60;2.95;;;;;;;24.62;54.92;99357.97;7314693;19;130266;-38
2023/06/16 01:01:14;;;;;;;26.92;2.00;;;;;;;24.62;55.21;99363.22;7317417;19;129708;-43
2023/06/16 01:03:40;;;;;;;36.47;2.63;;;;;;;24.49;54.95;99341.88;7312679;19;129602;-44
2023/06/16 01:06:17;;;;;;;32.10;2.35;;;;;;;24.62;55.38;99357.13;7315013;19;129210;-39
2023/06/16 01:08:48;;;;;;;;;;;;;;;24.58;55.48;99337.44;7315106;19;130338;-39
2023/06/16 01:11:35;;;;;;;33.63;2.22;;;;;;;24.61;55.77;99351.03;7315895;19;129583;-43
2023/06/16 01:14:08;;;;;;;69.87;4.83;;;;;;;24.60;55.35;99349.41;7313949;19;129249;-41
2023/06/16 01:16:35;;;;;;;29.95;2.10;;;;;;;24.61;55.28;99355.50;7315880;19;129106;-45
2023/06/16 01:19:07;;;;;;;64.47;4.30;;;;;;;24.52;55.13;99332.81;7314604;19;129704;-42
2023/06/16 01:21:47;;;;;;;33.50;2.38;;;;;;;24.60;55.28;99348.56;7316089;19;130388;-41
2023/06/16 01:24:23;;;;;;;31.95;2.22;;;;;;;24.60;55.69;99343.31;7313997;19;129817;-42
2023/06/16 01:26:52;;;;;;;42.30;2.72;;;;;;;24.59;55.68;99336.44;7315159;19;129654;-42
2023/06/16 01:29:21;;;;;;;30.38;2.13;;;;;;;24.59;55.04;99336.44;7316232;19;129809;-43
2023/06/16 01:31:49;;;;;;;33.60;2.47;;;;;;;24.60;55.41;99335.44;7313396;19;132364;-44
2023/06/16 01:34:15;;;;;;;21.45;1.67;;;;;;;24.59;55.32;99326.75;7315117;19;129459;-42
2023/06/16 01:36:41;;;;;;;;;;;;;;;24.68;55.81;99322.31;7309775;19;129642;-45
2023/06/16 01:39:08;;;;;;;41.10;2.80;;;;;;;24.52;54.96;99298.66;7316708;19;129030;-39
2023/06/16 01:41:36;;;;;;;20.38;1.63;;;;;;;24.60;55.36;99312.59;7313763;19;130146;-40
2023/06/16 01:44:02;;;;;;;34.10;2.45;;;;;;;24.60;55.47;99311.78;7315819;19;129282;-45
2023/06/16 01:46:29;;;;;;;22.92;1.92;;;;;;;24.60;55.38;99317.03;7312007;19;129249;-40
2023/06/16 01:48:54;;;;;;;;;;;;;;;24.70;55.66;99317.72;7316423;19;129531;-40
2023/06/16 01:51:21;;;;;;;35.88;2.75;;;;;;;24.53;55.56;99302.94;7313214;19;129251;-43
2023/06/16 01:53:46;;;;;;;33.88;2.55;;;;;;;24.59;55.52;99325.91;7314645;19;128991;-45
2023/06/16 01:56:12;;;;;;;43.40;2.80;;;;;;;24.63;55.30;99316.69;7312626;19;129208;-44
2023/06/16 01:58:38;;;;;;;58.75;3.90;;;;;;;24.59;55.31;99326.75;7315417;19;129660;-42
2023/06/16 02:01:59;;;;;;;54.27;3.77;;;;;;;24.51;55.52;99313.59;7314420;19;129391;-42
2023/06/16 02:04:27;;;;;;;40.10;2.72;;;;;;;24.60;55.55;99317.88;7313388;19;129631;-44
2023/06/16 02:07:02;;;;;;;17.33;1.48;;;;;;;24.63;55.96;99316.69;7311661;19;130943;-40
2023/06/16 02:09:29;;;;;;;27.75;2.05;;;;;;;24.55;54.96;99317.53;7315083;19;129589;-43
2023/06/16 02:11:55;;;;;;;56.95;4.20;;;;;;;24.60;55.67;99314.41;7311933;19;129443;-42
2023/06/16 02:14:22;;;;;;;43.00;3.00;;;;;;;24.60;55.53;99311.78;7314126;19;129403;-41
2023/06/16 02:16:49;;;;;;;78.07;5.37;;;;;;;24.59;55.04;99316.22;7311410;19;129548;-41
2023/06/16 02:19:14;;;;;;;21.95;1.70;;;;;;;24.59;55.48;99318.88;7316128;19;130385;-44
2023/06/16 02:21:43;;;;;;;64.17;4.50;;;;;;;24.60;55.53;99311.78;7312006;19;130150;-39
2023/06/16 02:24:08;;;;;;;29.70;2.30;;;;;;;24.61;54.97;99310.81;7314305;19;129040;-43
2023/06/16 02:26:35;;;;;;;41.60;2.93;;;;;;;24.49;55.67;99290.09;7313854;19;128875;-38
2023/06/16 02:29:01;;;;;;;60.83;4.00;;;;;;;24.62;55.19;99323.78;7314097;19;129575;-43
2023/06/16 02:31:27;;;;;;;32.05;2.33;;;;;;;24.59;55.32;99323.28;7314461;19;130157;-41
2023/06/16 02:33:53;;;;;;;22.23;1.83;;;;;;;24.60;55.69;99317.88;7311604;19;130077;-39
2023/06/16 02:36:19;;;;;;;35.80;2.58;;;;;;;24.59;55.60;99315.41;7312964;19;129097;-44
2023/06/16 02:38:45;;;;;;;16.33;1.47;;;;;;;24.61;55.06;99316.06;7312727;19;129964;-42
2023/06/16 02:41:11;;;;;;;26.27;2.17;;;;;;;24.59;54.78;99316.22;7313468;19;130209;-40
2023/06/16 02:43:36;;;;;;;42.83;2.90;;;;;;;24.51;55.08;99302.28;7311444;19;129374;-43
2023/06/16 02:46:01;;;;;;;28.65;2.35;;;;;;;24.63;55.58;99311.44;7312548;19;129294;-40
2023/06/16 02:48:27;;;;;;;29.23;2.13;;;;;;;24.62;55.11;99315.06;7312992;19;129796;-43
2023/06/16 02:50:53;;;;;;;33.43;2.30;;;;;;;24.60;54.87;99317.88;7312360;19;129995;-41
2023/06/16 02:53:18;;;;;;;67.33;4.30;;;;;;;24.61;55.45;99318.69;7311525;19;129082;-39
2023/06/16 02:55:46;;;;;;;38.73;2.63;;;;;;;24.59;54.98;99320.66;7312174;19;129188;-42
2023/06/16 02:58:12;;;;;;;36.30;2.63;;;;;;;24.59;54.96;99324.13;7309686;19;130565;-43
2023/06/16 03:00:37;;;;;;;48.00;3.37;;;;;;;24.59;55.75;99323.28;7311078;19;129184;-40
2023/06/16 03:03:04;;;;;;;52.60;3.53;;;;;;;24.63;55.44;99321.94;7312030;19;129961;-41
2023/06/16 03:05:31;;;;;;;;;;;;;;;24.69;55.48;99321.34;7314098;19;128788;-38
2023/06/16 03:07:57;;;;;;;26.42;2.03;;;;;;;24.62;55.44;99320.31;7311588;19;129294;-45
2023/06/16 03:10:22;;;;;;;44.40;3.27;;;;;;;24.62;54.83;99315.91;7310236;19;130086;-43
2023/06/16 03:12:48;;;;;;;43.20;2.83;;;;;;;24.61;55.84;99318.69;7311423;19;129653;-42
2023/06/16 03:15:14;;;;;;;28.10;1.87;;;;;;;24.60;55.60;99327.53;7313703;19;129091;-43
2023/06/16 03:17:40;;;;;;;19.67;1.73;;;;;;;24.62;55.65;99317.69;7309762;19;129627;-41
2023/06/16 03:20:06;;;;;;;31.37;2.27;;;;;;;24.63;55.45;99319.31;7313352;19;131197;-38
2023/06/16 03:22:31;;;;;;;100.65;6.63;;;;;;;24.55;55.01;99306.19;7311610;19;131302;-39
2023/06/16 03:25:02;;;;;;;34.70;2.53;;;;;;;24.63;55.51;99321.94;7312674;19;129123;-42
2023/06/16 03:27:29;;;;;;;32.70;2.25;;;;;;;24.50;55.29;99311.97;7310430;19;130889;-43
2023/06/16 03:29:55;;;;;;;37.35;2.70;;;;;;;24.61;55.71;99318.69;7310545;19;129417;-42
2023/06/16 03:32:20;;;;;;;43.10;2.80;;;;;;;24.60;55.68;99320.50;7311999;19;128837;-37
2023/06/16 03:34:46;;;;;;;28.93;2.07;;;;;;;24.51;55.10;99302.28;7309491;19;128860;-43
2023/06/16 03:37:12;;;;;;;19.98;1.58;;;;;;;24.63;54.98;99319.31;7308949;19;129709;-43
2023/06/16 03:39:38;;;;;;;44.83;3.07;;;;;;;24.63;55.59;99321.94;7309082;19;129286;-35
2023/06/16 03:42:03;;;;;;;32.60;2.40;;;;;;;24.61;55.08;99319.50;7311846;19;129229;-43
2023/06/16 03:44:29;;;;;;;30.08;2.40;;;;;;;24.60;55.33;99322.28;7310615;19;129360;-39
2023/06/16 03:46:55;;;;;;;36.30;2.77;;;;;;;24.54;55.66;99315.06;7308884;19;129127;-43
2023/06/16 03:49:20;;;;;;;23.97;1.70;;;;;;;24.61;55.13;99329.22;7310393;19;129293;-42
2023/06/16 03:51:46;;;;;;;62.27;3.97;;;;;;;24.55;55.50;99324.59;7311421;19;129004;-43
2023/06/16 03:54:11;;;;;;;40.35;2.75;;;;;;;24.61;55.78;99332.63;7309224;19;129185;-40
2023/06/16 03:56:37;;;;;;;31.48;2.35;;;;;;;24.62;55.24;99336.09;7311072;19;130324;-41
2023/06/16 03:59:03;;;;;;;40.37;2.73;;;;;;;24.61;55.02;99335.25;7309801;19;129637;-44
2023/06/16 04:01:29;;;;;;;48.60;3.20;;;;;;;24.59;55.05;99332.00;7311446;19;129444;-43
2023/06/16 04:03:54;;;;;;;86.70;5.77;;;;;;;24.62;55.49;99341.34;7308957;19;129505;-40
2023/06/16 04:06:19;;;;;;;10.73;1.03;;;;;;;24.61;55.69;99344.97;7309986;19;129528;-42
2023/06/16 04:08:46;;;;;;;42.67;2.83;;;;;;;24.60;55.17;99343.31;7311219;19;130302;-44
2023/06/16 04:11:11;;;;;;;43.63;2.90;;;;;;;24.59;55.79;99342.53;7310741;19;130600;-44
2023/06/16 04:13:37;;;;;;;34.70;2.60;;;;;;;24.62;55.36;99341.34;7309725;19;130552;-37
2023/06/16 04:16:02;;;;;;;69.73;5.00;;;;;;;24.51;55.40;99333.81;7306161;19;129141;-41
2023/06/16 04:18:28;;;;;;;40.60;2.77;;;;;;;24.56;55.58;99350.72;7305689;19;131810;-40
2023/06/16 04:20:53;;;;;;;38.37;2.77;;;;;;;24.62;55.11;99346.63;7309419;19;128961;-42
2023/06/16 04:23:18;;;;;;;47.60;3.13;;;;;;;24.63;55.60;99348.25;7307536;19;129278;-39
2023/06/16 04:25:44;;;;;;;37.75;2.53;;;;;;;24.61;55.26;99344.97;7307517;19;130066;-43
2023/06/16 04:28:13;;;;;;;45.67;3.10;;;;;;;24.61;55.67;99342.34;7309224;19;129336;-40
2023/06/16 04:30:42;;;;;;;76.28;4.90;;;;;;;24.59;55.45;99341.69;7308512;19;130261;-43
2023/06/16 04:33:07;;;;;;;42.58;3.28;;;;;;;24.57;55.32;99347.13;7308926;19;129128;-41
2023/06/16 04:35:33;;;;;;;61.83;4.37;;;;;;;24.59;55.23;99349.56;7309315;19;129558;-42
2023/06/16 04:37:59;;;;;;;65.93;4.47;;;;;;;24.60;55.14;99338.06;7307618;19;130044;-41
2023/06/16 04:40:26;;;;;;;52.83;3.73;;;;;;;24.60;55.38;99338.06;7312090;19;129540;-44
2023/06/16 04:42:51;;;;;;;16.23;1.42;;;;;;;24.63;55.67;99337.72;7309479;19;129526;-39
2023/06/16 04:45:17;;;;;;;30.57;2.03;;;;;;;24.53;55.85;99321.34;7309188;19;130499;-39
2023/06/16 04:47:43;;;;;;;39.40;2.57;;;;;;;24.61;55.14;99332.63;7310772;19;130231;-37
2023/06/16 04:50:10;;;;;;;34.20;2.40;;;;;;;24.61;55.27;99339.72;7311379;19;130791;-42
2023/06/16 04:52:36;;;;;;;49.60;3.38;;;;;;;24.61;55.43;99339.72;7308792;19;128836;-44
2023/06/16 04:55:02;;;;;;;39.00;2.88;;;;;;;24.54;55.28;99317.72;7307647;19;129208;-42
2023/06/16 04:57:28;;;;;;;59.83;3.85;;;;;;;24.53;55.33;99316.06;7307361;19;130056;-41
2023/06/16 04:59:53;;;;;;;31.60;2.25;;;;;;;24.61;55.55;99330.00;7309572;19;128984;-38
2023/06/16 05:02:18;;;;;;;24.00;1.67;;;;;;;24.62;55.10;99329.03;7309597;19;128915;-41
2023/06/16 05:04:44;;;;;;;77.33;4.80;;;;;;;24.63;55.34;99321.94;7306288;19;131453;-39
2023/06/16 05:07:11;;;;;;;94.50;6.00;;;;;;;24.50;55.75;99311.97;7306618;19;129239;-42
2023/06/16 05:09:36;;;;;;;;;;;;;;;24.69;55.53;99329.22;7307913;19;129147;-41
2023/06/16 05:12:02;;;;;;;54.50;3.85;;;;;;;24.65;55.40;99327.88;7307082;19;129847;-39
2023/06/16 05:14:27;;;;;;;24.17;1.83;;;;;;;24.62;55.33;99322.94;7305652;19;130363;-43
2023/06/16 05:16:53;;;;;;;62.90;3.97;;;;;;;24.62;55.01;99317.69;7299868;19;130394;-39
2023/06/16 05:19:18;;;;;;;35.47;2.47;;;;;;;24.62;55.74;99312.44;7303245;19;130166;-42
2023/06/16 05:21:43;;;;;;;60.37;4.03;;;;;;;24.61;55.39;99316.06;7302407;19;129562;-42
2023/06/16 05:24:09;;;;;;;62.60;4.03;;;;;;;24.62;54.93;99320.31;7304013;19;130542;-43
2023/06/16 05:26:34;;;;;;;43.37;2.90;;;;;;;24.62;55.35;99320.31;7301366;19;129798;-42
2023/06/16 05:29:00;;;;;;;61.67;3.93;;;;;;;24.61;55.43;99318.69;7304772;19;129278;-38
2023/06/16 05:31:25;;;;;;;69.87;4.20;;;;;;;24.63;55.13;99333.31;7302681;19;129401;-42
2023/06/16 05:33:51;;;;;;;35.47;2.57;;;;;;;24.59;55.12;99312.78;7304574;19;131087;-39
2023/06/16 05:36:16;;;;;;;37.93;2.63;;;;;;;24.60;55.71;99317.03;7314607;19;129925;-38
2023/06/16 05:38:41;;;;;;;21.70;1.67;;;;;;;24.59;55.33;99315.41;7314219;19;130836;-42
2023/06/16 05:41:07;;;;;;;28.90;2.17;;;;;;;24.61;55.75;99316.88;7314259;19;129184;-37
2023/06/16 05:43:32;;;;;;;53.42;3.55;;;;;;;24.60;55.34;99320.50;7314122;19;131054;-41
2023/06/16 05:45:57;;;;;;;28.70;2.07;;;;;;;24.61;55.60;99319.50;7315111;19;129413;-42
2023/06/16 05:48:23;;;;;;;34.93;2.37;;;;;;;24.62;55.13;99320.31;7314683;19;129575;-42
2023/06/16 05:50:48;;;;;;;32.37;2.33;;;;;;;24.59;54.99;99315.41;7312399;19;129405;-44
2023/06/16 05:53:13;;;;;;;41.42;2.80;;;;;;;24.59;55.12;99325.91;7313664;19;129367;-43
2023/06/16 05:55:39;;;;;;;31.40;2.30;;;;;;;24.61;55.12;99318.69;7315497;19;129620;-44
2023/06/16 05:58:05;;;;;;;38.15;2.55;;;;;;;24.60;55.43;99320.50;7314514;19;129543;-41
2023/06/16 06:00:30;;;;;;;60.80;4.20;;;;;;;24.63;55.43;99329.84;7314521;19;129275;-41
2023/06/16 06:02:56;;;;;;;50.57;3.60;;;;;;;24.61;55.45;99330.00;7314868;19;129321;-42
2023/06/16 06:05:21;;;;;;;30.47;2.17;;;;;;;24.60;55.51;99317.03;7315487;19;131099;-43
2023/06/16 06:07:46;;;;;;;24.97;1.87;;;;;;;24.60;55.15;99317.03;7315155;19;129121;-45
2023/06/16 06:10:12;;;;;;;24.17;1.77;;;;;;;24.59;55.38;99315.41;7315022;19;129145;-39
2023/06/16 06:12:37;;;;;;;31.17;2.20;;;;;;;24.59;55.39;99315.41;7315153;19;129724;-46
2023/06/16 06:15:03;;;;;;;30.65;2.33;;;;;;;24.57;55.05;99312.94;7314385;19;129736;-43
2023/06/16 06:17:29;;;;;;;16.70;1.60;;;;;;;24.58;55.23;99322.47;7312350;19;129013;-43
2023/06/16 06:19:54;;;;;;;40.90;2.80;;;;;;;24.60;55.70;99324.91;7314802;19;129229;-42
2023/06/16 06:22:20;;;;;;;31.47;2.13;;;;;;;24.59;55.29;99323.28;7313961;19;130009;-45
2023/06/16 06:24:45;;;;;;;37.67;2.63;;;;;;;24.60;55.13;99319.66;7313143;19;129753;-44
2023/06/16 06:27:12;;;;;;;38.47;2.53;;;;;;;24.58;55.01;99319.03;7311580;19;129322;-42
2023/06/16 06:29:37;;;;;;;46.90;3.08;;;;;;;24.61;55.67;99321.31;7312240;19;129594;-43
2023/06/16 06:32:07;;;;;;;51.57;3.30;;;;;;;24.62;55.33;99317.69;7315004;19;128973;-44
2023/06/16 06:34:36;;;;;;;30.90;2.35;;;;;;;24.60;55.36;99319.66;7314250;19;130546;-44
2023/06/16 06:37:01;;;;;;;31.00;2.33;;;;;;;24.60;55.71;99324.91;7312730;19;129115;-42
2023/06/16 06:39:26;;;;;;;47.93;3.30;;;;;;;24.58;55.33;99317.19;7314250;19;129088;-42
2023/06/16 06:41:52;;;;;;;32.23;2.23;;;;;;;24.59;55.43;99331.19;7313176;19;129453;-40
2023/06/16 06:44:17;;;;;;;17.67;1.53;;;;;;;24.59;55.20;99332.00;7313047;19;129213;-41
2023/06/16 06:46:42;;;;;;;21.10;1.60;;;;;;;24.57;55.23;99333.97;7312837;19;129242;-42
2023/06/16 06:49:08;;;;;;;56.23;3.63;;;;;;;24.60;55.74;99343.31;7312825;19;129100;-37
2023/06/16 06:51:33;;;;;;;28.55;2.05;;;;;;;24.58;55.30;99334.81;7312369;19;130336;-41
2023/06/16 06:53:58;;;;;;;17.00;1.52;;;;;;;24.61;55.15;99344.97;7312210;19;130031;-42
2023/06/16 06:56:24;;;;;;;26.37;1.77;;;;;;;24.61;55.23;99334.47;7313592;19;129201;-46
2023/06/16 06:58:49;;;;;;;42.33;2.77;;;;;;;24.59;55.06;99341.69;7311984;19;129778;-41
2023/06/16 07:01:14;;;;;;;34.67;2.43;;;;;;;24.61;55.63;99344.97;7314121;19;130050;-41
2023/06/16 07:03:40;;;;;;;14.13;1.30;;;;;;;24.60;55.54;99338.06;7312081;19;129266;-36
2023/06/16 07:06:05;;;;;;;36.77;2.60;;;;;;;24.60;55.83;99343.31;7312445;19;129165;-40
2023/06/16 07:08:31;;;;;;;38.03;2.80;;;;;;;24.60;55.50;99343.31;7314155;19;129386;-39
2023/06/16 07:10:56;;;;;;;34.00;2.47;;;;;;;24.62;55.45;99343.97;7311170;19;129188;-43
2023/06/16 07:13:22;;;;;;;31.93;2.33;;;;;;;24.61;55.74;99342.34;7310750;19;129568;-42
2023/06/16 07:15:47;;;;;;;33.07;2.33;;;;;;;24.59;55.78;99339.06;7312450;19;129109;-44
2023/06/16 07:18:12;;;;;;;31.48;2.08;;;;;;;24.61;55.38;99344.97;7312554;19;129062;-44
2023/06/16 07:20:38;;;;;;;48.00;3.43;;;;;;;24.57;55.17;99339.22;7312581;19;129411;-38
2023/06/16 07:23:03;;;;;;;46.50;3.07;;;;;;;24.60;55.91;99332.81;7310488;19;130604;-40
2023/06/16 07:25:32;;;;;;;54.13;3.47;;;;;;;24.61;55.31;99334.47;7312764;19;129470;-43
2023/06/16 07:27:57;;;;;;;53.88;3.35;;;;;;;24.48;55.70;99327.91;7314130;19;129169;-41
2023/06/16 07:30:23;;;;;;;42.57;3.10;;;;;;;24.61;55.74;99339.72;7313423;19;129542;-41
2023/06/16 07:32:49;;;;;;;60.70;4.17;;;;;;;24.58;55.88;99335.59;7312294;19;129323;-44
2023/06/16 07:35:15;;;;;;;42.92;2.72;;;;;;;24.48;55.82;99330.53;7312784;19;129302;-40
2023/06/16 07:37:40;;;;;;;26.93;2.17;;;;;;;24.59;55.67;99342.53;7312358;19;129110;-44
2023/06/16 07:40:08;;;;;;;29.70;2.27;;;;;;;24.49;55.80;99320.84;7312636;19;129504;-42
2023/06/16 07:42:33;;;;;;;30.08;2.30;;;;;;;24.60;55.46;99344.16;7309407;19;130528;-37
2023/06/16 07:44:59;;;;;;;42.43;2.90;;;;;;;24.59;55.45;99339.88;7310410;19;129830;-44
2023/06/16 07:47:24;;;;;;;27.63;1.87;;;;;;;24.60;55.72;99338.06;7310812;19;129258;-39
2023/06/16 07:49:49;;;;;;;30.37;2.37;;;;;;;24.60;55.86;99345.94;7312444;19;130100;-39
2023/06/16 07:52:15;;;;;;;24.27;1.87;;;;;;;24.50;55.14;99327.72;7311978;19;130394;-40
2023/06/16 07:54:41;;;;;;;37.20;2.53;;;;;;;24.60;55.87;99343.31;7310766;19;128900;-39
2023/06/16 07:57:06;;;;;;;28.97;2.20;;;;;;;24.60;55.54;99348.56;7308379;19;129036;-41
2023/06/16 07:59:32;;;;;;;28.10;2.10;;;;;;;24.60;55.87;99344.16;7312258;19;129512;-40
2023/06/16 08:01:57;;;;;;;40.53;2.77;;;;;;;24.62;55.78;99341.34;7310192;19;129738;-39
2023/06/16 08:04:24;;;;;;;54.92;3.45;;;;;;;24.61;55.64;99339.72;7308896;19;129419;-40
2023/06/16 08:06:50;;;;;;;27.60;2.08;;;;;;;24.61;55.83;99347.63;7310279;19;129065;-39
2023/06/16 08:09:16;;;;;;;18.73;1.40;;;;;;;24.62;55.57;99344.81;7311954;19;129436;-38
2023/06/16 08:11:41;;;;;;;43.08;2.78;;;;;;;24.50;55.42;99348.75;7309367;19;130392;-40
2023/06/16 08:14:06;;;;;;;24.98;2.00;;;;;;;24.60;55.19;99359.09;7311071;19;128872;-44
2023/06/16 08:16:31;;;;;;;29.63;2.30;;;;;;;24.51;55.22;99333.81;7310606;19;129033;-42
2023/06/16 08:18:59;;;;;;;35.10;2.53;;;;;;;24.57;55.79;99347.13;7308902;19;129131;-44
2023/06/16 08:21:24;;;;;;;36.15;2.63;;;;;;;24.61;55.45;99352.88;7310763;19;130975;-43
2023/06/16 08:23:52;;;;;;;20.33;1.83;;;;;;;24.61;54.99;99344.97;7311694;19;129075;-44
2023/06/16 08:26:18;;;;;;;24.20;1.73;;;;;;;24.59;55.79;99358.28;7310624;19;129396;-44
2023/06/16 08:28:44;;;;;;;47.90;3.23;;;;;;;24.60;55.51;99348.56;7311007;19;129319;-38
2023/06/16 08:31:10;;;;;;;46.88;3.20;;;;;;;24.51;55.11;99329.34;7310736;19;129388;-42
2023/06/16 08:33:35;;;;;;;54.67;3.70;;;;;;;24.61;55.43;99345.78;7311005;19;129434;-39
2023/06/16 08:36:01;;;;;;;30.27;2.30;;;;;;;24.60;55.41;99343.31;7310858;19;129278;-44
2023/06/16 08:38:27;;;;;;;28.23;2.37;;;;;;;24.60;55.72;99348.56;7309553;19;129158;-39
2023/06/16 08:40:52;;;;;;;46.57;3.07;;;;;;;24.49;55.51;99332.16;7310272;19;129532;-39
2023/06/16 08:43:21;;;;;;;39.77;2.80;;;;;;;24.57;55.59;99343.66;7310052;19;129038;-42
2023/06/16 08:45:49;;;;;;;16.92;1.45;;;;;;;24.58;55.32;99346.13;7309988;19;128856;-45
2023/06/16 08:48:15;;;;;;;18.50;1.52;;;;;;;24.60;55.63;99348.56;7311237;19;130165;-42
2023/06/16 08:50:41;;;;;;;41.83;2.88;;;;;;;24.58;55.53;99350.56;7309341;19;129565;-43
2023/06/16 08:53:09;;;;;;;39.93;2.87;;;;;;;24.60;55.46;99348.56;7310543;19;129835;-44
2023/06/16 08:55:40;;;;;;;33.10;2.55;;;;;;;24.58;55.23;99351.38;7310381;19;129875;-43
2023/06/16 08:58:08;;;;;;;27.40;2.10;;;;;;;24.58;55.72;99355.84;7309019;19;129764;-39
2023/06/16 09:00:33;;;;;;;70.13;4.88;;;;;;;24.58;55.12;99355.84;7310345;19;129519;-38
2023/06/16 09:02:59;;;;;;;47.37;3.33;;;;;;;24.59;55.75;99357.47;7310654;19;128767;-45
2023/06/16 09:05:25;;;;;;;33.70;2.37;;;;;;;24.57;55.87;99362.88;7310161;19;130293;-41
2023/06/16 09:07:51;;;;;;;25.17;2.03;;;;;;;24.57;55.32;99360.25;7311870;19;129361;-42
2023/06/16 09:10:16;;;;;;;36.45;2.47;;;;;;;24.58;55.32;99355.84;7316327;19;129292;-40
2023/06/16 09:12:42;;;;;;;33.37;2.57;;;;;;;24.60;55.33;99361.72;7314233;19;129386;-37
2023/06/16 09:15:10;;;;;;;44.87;3.30;;;;;;;24.61;55.41;99368.63;7314565;19;129261;-45
2023/06/16 09:17:37;;;;;;;29.67;2.15;;;;;;;24.60;55.45;99369.59;7315145;19;130174;-40
2023/06/16 09:20:06;;;;;;;54.97;3.75;;;;;;;24.59;55.14;99368.81;7316000;19;130984;-43
2023/06/16 09:22:32;;;;;;;39.20;3.15;;;;;;;24.57;55.54;99375.19;7317179;19;128932;-42
2023/06/16 09:25:00;;;;;;;29.50;2.42;;;;;;;24.55;55.77;99378.00;7317107;19;128852;-41
2023/06/16 09:27:45;;;;;;;27.63;2.22;;;;;;;24.58;55.95;99376.84;7313479;19;129449;-46
2023/06/16 09:30:16;;;;;;;30.10;2.28;;;;;;;24.58;55.65;99382.13;7316186;19;129873;-40
2023/06/16 09:32:42;;;;;;;27.42;2.10;;;;;;;24.57;55.10;99378.66;7315547;19;128946;-45
2023/06/16 09:35:21;;;;;;;35.57;2.60;;;;;;;24.59;55.54;99383.75;7316217;19;129131;-43
2023/06/16 09:37:48;;;;;;;39.90;2.88;;;;;;;24.58;55.55;99380.28;7315051;19;129380;-44
2023/06/16 09:40:14;;;;;;;29.95;2.22;;;;;;;24.58;55.04;99382.13;7316640;19;130371;-41
2023/06/16 09:42:43;;;;;;;27.90;2.15;;;;;;;24.57;55.26;99386.53;7314666;19;128873;-42
2023/06/16 09:45:13;;;;;;;39.55;2.97;;;;;;;24.48;55.83;99376.19;7313542;19;129037;-42
2023/06/16 09:47:43;;;;;;;42.00;2.95;;;;;;;24.53;56.18;99379.16;7315666;19;129606;-39
2023/06/16 09:50:15;;;;;;;33.05;2.50;;;;;;;24.55;55.47;99378.00;7316307;19;129452;-44
2023/06/16 09:52:42;;;;;;;29.40;2.28;;;;;;;24.51;55.71;99371.41;7313143;19;128914;-44
2023/06/16 09:55:10;;;;;;;27.15;2.05;;;;;;;24.56;55.71;99379.63;7315110;19;129062;-44
2023/06/16 09:57:36;;;;;;;41.08;2.88;;;;;;;24.55;55.14;99383.25;7312396;19;129338;-42
2023/06/16 10:00:06;;;;;;;30.70;2.42;;;;;;;24.53;55.98;99376.53;7316831;19;130245;-42
2023/06/16 10:02:33;;;;;;;43.75;3.47;;;;;;;24.54;55.92;99384.25;7315227;19;129755;-39
2023/06/16 10:05:02;;;;;;;60.28;4.10;;;;;;;24.46;55.39;99371.09;7313432;19;129099;-39
2023/06/16 10:07:30;;;;;;;44.70;3.38;;;;;;;24.44;55.35;99365.97;7311103;19;129188;-45
2023/06/16 10:09:58;;;;;;;48.78;3.47;;;;;;;24.54;55.52;99381.63;7314613;19;130471;-38
2023/06/16 10:12:25;;;;;;;41.63;3.00;;;;;;;24.46;55.65;99373.72;7314708;19;129093;-40
2023/06/16 10:14:51;;;;;;;36.95;2.58;;;;;;;24.54;55.24;99378.16;7315058;19;129166;-41
2023/06/16 10:17:18;;;;;;;32.00;2.53;;;;;;;24.54;55.93;99383.41;7312317;19;129224;-43
2023/06/16 10:19:46;;;;;;;;;;;;;;;24.63;55.71;99385.88;7312505;19;129632;-39
2023/06/16 10:22:12;;;;;;;19.10;1.85;;;;;;;24.59;55.20;99383.75;7316574;19;128933;-38
2023/06/16 10:24:39;;;;;;;29.35;2.33;;;;;;;24.58;55.98;99387.38;7315362;19;129582;-41
2023/06/16 10:27:07;;;;;;;37.13;2.80;;;;;;;24.49;55.72;99373.41;7313275;19;130119;-42
2023/06/16 10:29:33;;;;;;;47.92;3.28;;;;;;;24.44;55.91;99373.06;7313580;19;129401;-43
2023/06/16 10:32:06;;;;;;;37.20;2.80;;;;;;;24.54;56.06;99380.78;7310730;19;129082;-41
2023/06/16 10:34:34;;;;;;;38.35;2.95;;;;;;;24.54;55.68;99372.91;7310985;19;129341;-41
2023/06/16 10:37:00;;;;;;;30.95;2.35;;;;;;;24.56;55.72;99384.09;7311728;19;129450;-41
2023/06/16 10:39:26;;;;;;;39.37;2.77;;;;;;;24.48;55.65;99371.75;7312728;19;129774;-42
2023/06/16 10:41:57;;;;;;;26.10;2.10;;;;;;;24.56;55.30;99389.34;7315838;19;129296;-42
2023/06/16 10:44:25;;;;;;;22.70;1.98;;;;;;;24.56;56.15;99389.34;7314747;19;129101;-43
2023/06/16 10:47:09;;;;;;;33.97;2.58;;;;;;;24.56;55.72;99390.13;7312028;19;131179;-40
2023/06/16 10:49:57;;;;;;;26.75;2.17;;;;;;;24.56;56.03;99394.59;7314463;19;129648;-42
2023/06/16 10:52:28;;;;;;;43.03;3.28;;;;;;;24.57;56.21;99399.69;7313109;19;129612;-42
2023/06/16 10:54:55;;;;;;;43.40;3.15;;;;;;;24.56;55.60;99394.59;7313410;19;129505;-38
2023/06/16 10:57:22;;;;;;;26.48;2.22;;;;;;;24.55;55.26;99395.56;7312809;19;129183;-38
2023/06/16 11:00:11;;;;;;;28.20;2.58;;;;;;;24.55;55.46;99392.94;7312537;19;129712;-38
2023/06/16 11:02:50;;;;;;;28.20;2.17;;;;;;;24.46;55.32;99374.53;7313165;19;129590;-44
2023/06/16 11:05:18;;;;;;;24.45;1.88;;;;;;;24.55;55.35;99393.75;7314075;19;129185;-44
2023/06/16 11:08:08;;;;;;;31.45;2.33;;;;;;;24.58;55.60;99397.88;7313817;19;129381;-41
2023/06/16 11:10:49;;;;;;;45.30;3.45;;;;;;;24.52;55.92;99390.63;7313187;19;130062;-39
2023/06/16 11:13:16;;;;;;;35.65;2.60;;;;;;;24.53;55.62;99384.41;7312540;19;129021;-42
2023/06/16 11:15:42;;;;;;;63.60;4.13;;;;;;;24.54;56.00;99391.31;7313577;19;129409;-41
2023/06/16 11:18:08;;;;;;;30.65;2.45;;;;;;;24.56;55.57;99394.59;7312745;19;129286;-44
2023/06/16 11:20:36;;;;;;;40.13;3.23;;;;;;;24.55;55.32;99398.19;7313069;19;130274;-41